»·PEaware :: WJA488 KPDX-KSFO

WJA488 :: KPDX-KSFO

FLIGHT INFORMATION

Flight Status: Arrived
Operator:
Westjet Airlines
More flights by this operator :: More flights under this callsign
Pilot: Ulrik N. (13596)
Aircraft: BOEING 737-800
(B738)
More flights by this aircraft type
Origin: KPDX Portland Intl
United States
Destination: KSFO San Francisco Intl
United States
More flights between these airports :: More routes between these airports
Route: MINNE5 FAMUK Q3 FOWND MLBEC BDEGA2
File this flight plan on PilotEdge
Remarks:
Altitude:
(Current/Filed)
37,000ft
Speed:
(Current/Filed)
434kts
Departed: 06-Aug-18 09:16 PM
Arrived: 06-Aug-18 10:41 PM
Distance/Time
Traveled:
478nm/1:25
Distance/Time
To Go:
Arrived

Flight Plot

Page will automatically refresh every two minutes.


Map Options




Map Legend


Flown Route
Filed Route
Departure Airport
Arrival Airport
Navaid (VOR, NDB)
Fix

Horizontal Profiles

Position Reports

Time Latitude Longitude Heading Altitude Ground
Speed
06-Aug-18 21:02 45.590248 -122.591561 209 37ft 0kts
06-Aug-18 21:03 45.590248 -122.591561 209 37ft 0kts
06-Aug-18 21:04 45.590248 -122.591561 209 37ft 0kts
06-Aug-18 21:05 45.590248 -122.591561 209 37ft 0kts
06-Aug-18 21:06 45.590248 -122.591561 209 37ft 0kts
06-Aug-18 21:07 45.590248 -122.591561 209 37ft 0kts
06-Aug-18 21:08 45.590445 -122.591402 209 36ft 2kts
06-Aug-18 21:09 45.590939 -122.591175 150 36ft 2kts
06-Aug-18 21:10 45.591065 -122.591382 118 37ft 0kts
06-Aug-18 21:11 45.591065 -122.591382 118 37ft 0kts
06-Aug-18 21:12 45.591049 -122.591338 118 36ft 2kts
06-Aug-18 21:13 45.589837 -122.587648 136 36ft 16kts
06-Aug-18 21:14 45.586665 -122.577985 118 36ft 26kts
06-Aug-18 21:15 45.583003 -122.568591 119 37ft 24kts
06-Aug-18 21:16 45.583516 -122.566995 331 36ft 10kts
06-Aug-18 21:17 45.596240 -122.599282 300 375ft 162kts
06-Aug-18 21:18 45.618669 -122.664754 286 1670ft 224kts
06-Aug-18 21:19 45.650651 -122.751547 299 3742ft 260kts
06-Aug-18 21:20 45.664674 -122.865687 253 7430ft 271kts
06-Aug-18 21:21 45.619196 -122.922751 194 9894ft 284kts
06-Aug-18 21:22 45.535044 -122.933876 186 12179ft 315kts
06-Aug-18 21:23 45.446656 -122.943727 186 14860ft 327kts
06-Aug-18 21:24 45.354352 -122.954226 187 17481ft 340kts
06-Aug-18 21:25 45.259079 -122.965133 187 19867ft 352kts
06-Aug-18 21:26 45.160687 -122.982760 192 22045ft 362kts
06-Aug-18 21:27 45.060335 -123.006243 191 24145ft 370kts
06-Aug-18 21:28 44.958125 -123.030094 190 26018ft 378kts
06-Aug-18 21:29 44.853527 -123.054346 191 27649ft 389kts
06-Aug-18 21:30 44.745953 -123.079198 191 29176ft 398kts
06-Aug-18 21:31 44.636978 -123.104251 192 30956ft 396kts
06-Aug-18 21:32 44.528850 -123.129014 192 32603ft 393kts
06-Aug-18 21:33 44.419397 -123.134313 182 34023ft 396kts
06-Aug-18 21:34 44.309899 -123.130018 182 35343ft 394kts
06-Aug-18 21:35 44.201990 -123.126005 182 36503ft 391kts
06-Aug-18 21:36 44.092491 -123.122078 182 37097ft 403kts
06-Aug-18 21:37 43.977128 -123.118057 182 37095ft 431kts
06-Aug-18 21:38 43.857388 -123.113794 182 37091ft 433kts
06-Aug-18 21:39 43.737264 -123.109518 182 37092ft 433kts
06-Aug-18 21:40 43.617271 -123.105273 182 37088ft 433kts
06-Aug-18 21:41 43.497030 -123.101027 182 37081ft 433kts
06-Aug-18 21:42 43.376895 -123.096797 182 37081ft 434kts
06-Aug-18 21:43 43.256456 -123.092565 182 37080ft 434kts
06-Aug-18 21:44 43.136384 -123.088355 182 37080ft 434kts
06-Aug-18 21:45 43.015880 -123.084145 182 37081ft 434kts
06-Aug-18 21:46 42.896485 -123.080013 181 37075ft 428kts
06-Aug-18 21:47 42.777399 -123.075880 181 37067ft 429kts
06-Aug-18 21:48 42.658365 -123.071742 181 37055ft 429kts
06-Aug-18 21:49 42.539416 -123.067613 181 37055ft 429kts
06-Aug-18 21:50 42.420483 -123.063596 181 37054ft 430kts
06-Aug-18 21:51 42.301169 -123.059743 181 37053ft 430kts
06-Aug-18 21:52 42.181808 -123.055903 181 37053ft 430kts
06-Aug-18 21:53 42.062620 -123.052079 181 37052ft 430kts
06-Aug-18 21:54 41.943990 -123.048283 181 37062ft 430kts
06-Aug-18 21:55 41.825970 -123.044515 181 37085ft 430kts
06-Aug-18 21:56 41.707138 -123.040726 181 37101ft 430kts
06-Aug-18 21:57 41.587592 -123.036920 181 37100ft 430kts
06-Aug-18 21:58 41.468479 -123.033133 181 37100ft 431kts
06-Aug-18 21:59 41.348867 -123.029334 181 37099ft 431kts
06-Aug-18 22:00 41.230067 -123.025713 181 37099ft 431kts
06-Aug-18 22:01 41.110855 -123.022147 181 37098ft 431kts
06-Aug-18 22:02 40.991642 -123.018634 180 36985ft 431kts
06-Aug-18 22:03 40.874017 -123.015160 180 36929ft 432kts
06-Aug-18 22:04 40.754003 -123.011610 180 36927ft 432kts
06-Aug-18 22:05 40.634299 -123.008080 180 36927ft 432kts
06-Aug-18 22:06 40.514666 -123.004561 180 36926ft 432kts
06-Aug-18 22:07 40.394558 -123.001034 180 36926ft 432kts
06-Aug-18 22:08 40.274807 -122.997522 180 36929ft 432kts
06-Aug-18 22:09 40.155012 -122.994013 180 36942ft 432kts
06-Aug-18 22:10 40.035098 -122.990501 180 36977ft 432kts
06-Aug-18 22:11 39.915160 -122.986992 180 36991ft 432kts
06-Aug-18 22:12 39.797866 -122.983559 180 37003ft 432kts
06-Aug-18 22:13 39.677894 -122.980051 180 37050ft 432kts
06-Aug-18 22:14 39.558153 -122.976552 179 36929ft 436kts
06-Aug-18 22:15 39.434171 -122.972944 179 35384ft 449kts
06-Aug-18 22:16 39.312799 -122.969369 179 33769ft 432kts
06-Aug-18 22:17 39.191254 -122.965832 179 32185ft 441kts
06-Aug-18 22:18 39.068295 -122.962397 180 30590ft 445kts
06-Aug-18 22:19 38.947212 -122.960050 179 29062ft 429kts
06-Aug-18 22:20 38.830725 -122.947390 169 27618ft 444kts
06-Aug-18 22:21 38.712921 -122.912074 168 26090ft 421kts
06-Aug-18 22:22 38.600553 -122.878625 168 24626ft 415kts
06-Aug-18 22:23 38.489396 -122.845742 167 23153ft 408kts
06-Aug-18 22:24 38.380564 -122.813674 167 21506ft 397kts
06-Aug-18 22:25 38.274664 -122.782595 167 19807ft 386kts
06-Aug-18 22:26 38.171892 -122.752572 166 18172ft 374kts
06-Aug-18 22:27 38.071678 -122.723432 166 16573ft 365kts
06-Aug-18 22:28 37.974496 -122.695257 166 14977ft 354kts
06-Aug-18 22:29 37.883576 -122.657660 141 13608ft 337kts
06-Aug-18 22:30 37.821784 -122.577814 123 12665ft 303kts
06-Aug-18 22:31 37.776042 -122.490956 122 11148ft 293kts
06-Aug-18 22:32 37.731355 -122.406618 122 9417ft 280kts
06-Aug-18 22:33 37.688612 -122.326724 123 7791ft 273kts
06-Aug-18 22:34 37.646536 -122.247813 123 6201ft 266kts
06-Aug-18 22:35 37.606416 -122.171313 123 3971ft 256kts
06-Aug-18 22:36 37.565384 -122.106385 162 2516ft 206kts
06-Aug-18 22:37 37.537417 -122.138962 295 2539ft 177kts
06-Aug-18 22:38 37.559236 -122.195951 295 2361ft 181kts
06-Aug-18 22:39 37.578163 -122.249553 293 1795ft 143kts
06-Aug-18 22:40 37.591045 -122.296281 288 1088ft 138kts
06-Aug-18 22:41 37.604218 -122.340364 297 368ft 129kts
06-Aug-18 22:42 37.618315 -122.374094 298 20ft 38kts
06-Aug-18 22:43 37.619791 -122.382321 298 20ft 22kts

Navigation Log

Ident Type
1. KPDX Airport
2. RIVRR Fix
3. COSUG Fix
4. BISLE Fix
5. MINNE Fix
6. FAMUK Fix
7. FAMUK Navaid
8. FRFLY Navaid
9. FINER Navaid
10. FOWND Navaid
11. MLBEC Fix
12. JONNE Fix
13. BGGLO Fix
14. LOZIT Fix
15. BDEGA Fix
16. CORKK Fix
17. BRIXX Fix
18. KSFO Airport